Time;durP1;ratioP1;P1;durP2;ratioP2;P2;SDS_P1;SDS_P2;PMS_P1;PMS_P2;Temp;Humidity;BMP_temperature;BMP_pressure;BME280_temperature;BME280_humidity;BME280_pressure;Samples;Min_cycle;Max_cycle;Signal;HPM_P1;HPM_P2
2023/08/23 00:00:17;;;;;;;4.18;2.30;;;30.00;99.90;;;;;;5047547;28;20237;-54
2023/08/23 00:02:43;;;;;;;6.78;3.40;;;30.00;99.90;;;;;;5047471;28;20029;-51
2023/08/23 00:05:10;;;;;;;5.00;3.60;;;30.10;99.90;;;;;;5047814;28;20037;-54
2023/08/23 00:07:37;;;;;;;9.50;3.90;;;30.10;99.90;;;;;;5047884;28;20021;-52
2023/08/23 00:10:10;;;;;;;9.85;4.03;;;30.10;99.90;;;;;;5063072;28;20021;-54
2023/08/23 00:12:36;;;;;;;6.30;3.90;;;30.10;99.90;;;;;;5047418;28;20349;-55
2023/08/23 00:15:03;;;;;;;4.55;3.78;;;30.20;99.90;;;;;;5047834;28;20259;-53
2023/08/23 00:17:31;;;;;;;7.18;3.35;;;30.10;99.90;;;;;;5047025;28;20037;-58
2023/08/23 00:20:04;;;;;;;5.80;4.60;;;30.00;99.90;;;;;;5047420;28;20064;-52
2023/08/23 00:22:37;;;;;;;8.77;5.90;;;30.00;99.90;;;;;;5047427;28;20018;-53
2023/08/23 00:25:04;;;;;;;6.30;4.15;;;30.00;99.90;;;;;;5046878;28;20306;-52
2023/08/23 00:27:30;;;;;;;5.28;3.67;;;29.90;99.90;;;;;;5046953;28;20025;-54
2023/08/23 00:29:57;;;;;;;4.93;3.40;;;29.90;99.90;;;;;;5064621;28;20068;-54
2023/08/23 00:32:26;;;;;;;3.13;2.75;;;29.90;99.90;;;;;;5067183;28;20154;-51
2023/08/23 00:34:53;;;;;;;6.07;2.90;;;29.90;99.90;;;;;;5066843;28;20070;-58
2023/08/23 00:37:22;;;;;;;4.05;2.42;;;29.90;99.90;;;;;;5066740;28;20029;-49
2023/08/23 00:39:49;;;;;;;4.05;2.30;;;29.90;99.90;;;;;;5067142;28;20032;-53
2023/08/23 00:42:16;;;;;;;5.15;2.28;;;29.80;99.90;;;;;;5066934;28;20024;-55
2023/08/23 00:44:45;;;;;;;4.28;2.00;;;29.80;99.90;;;;;;5066575;28;20052;-57
2023/08/23 00:47:12;;;;;;;3.97;1.95;;;29.80;99.90;;;;;;5067206;28;20354;-61
2023/08/23 00:49:39;;;;;;;9.00;2.15;;;29.70;99.90;;;;;;5066639;28;20016;-51
2023/08/23 00:52:06;;;;;;;4.72;1.83;;;29.60;99.90;;;;;;5067171;28;20375;-53
2023/08/23 00:54:36;;;;;;;2.53;1.63;;;29.60;99.90;;;;;;5066614;28;20278;-52
2023/08/23 00:57:03;;;;;;;4.93;2.05;;;29.60;99.90;;;;;;5066229;28;20025;-52
2023/08/23 00:59:35;;;;;;;3.10;1.73;;;29.70;99.90;;;;;;5066511;28;20093;-56
2023/08/23 01:02:07;;;;;;;;;;;29.70;99.90;;;;;;5066588;28;20036;-55
2023/08/23 01:04:33;;;;;;;12.32;2.72;;;29.60;99.90;;;;;;5066148;28;19950;-53
2023/08/23 01:07:16;;;;;;;10.50;2.38;;;29.70;99.90;;;;;;5066173;28;20217;-54
2023/08/23 01:09:58;;;;;;;5.38;2.00;;;29.60;99.90;;;;;;5066536;28;20044;-51
2023/08/23 01:12:34;;;;;;;;;;;29.60;99.90;;;;;;5066890;28;20189;-54
2023/08/23 01:15:08;;;;;;;5.75;2.15;;;29.70;99.90;;;;;;5066132;28;20201;-55
2023/08/23 01:17:42;;;;;;;4.45;1.83;;;29.70;99.90;;;;;;5066087;28;20036;-54
2023/08/23 01:20:19;;;;;;;3.17;1.58;;;29.70;99.90;;;;;;5052698;28;20076;-54
2023/08/23 01:22:53;;;;;;;5.18;1.88;;;29.70;99.90;;;;;;5046212;28;20033;-54
2023/08/23 01:25:33;;;;;;;5.20;1.98;;;29.60;99.90;;;;;;5045530;28;20026;-55
2023/08/23 01:27:59;;;;;;;6.85;1.85;;;29.70;99.90;;;;;;5043458;28;20194;-50
2023/08/23 01:30:27;;;;;;;3.67;1.90;;;29.70;99.90;;;;;;5053788;28;20022;-58
2023/08/23 01:33:07;;;;;;;3.92;1.90;;;29.80;99.90;;;;;;5026035;28;20034;-52
2023/08/23 01:36:08;;;;;;;9.15;6.28;;;29.80;99.90;;;;;;5026558;28;20057;-51
2023/08/23 01:38:36;;;;;;;5.68;4.10;;;29.80;99.90;;;;;;5038225;28;20298;-55
2023/08/23 01:41:09;;;;;;;4.32;3.20;;;29.80;99.90;;;;;;5044463;28;20033;-55
2023/08/23 01:43:36;;;;;;;6.80;3.28;;;29.70;99.90;;;;;;5041910;28;20025;-49
2023/08/23 01:46:03;;;;;;;5.00;2.55;;;29.80;99.90;;;;;;5046168;28;20075;-52
2023/08/23 01:48:30;;;;;;;5.90;2.40;;;29.60;99.90;;;;;;5045306;28;20144;-56
2023/08/23 01:51:03;;;;;;;4.25;2.30;;;29.60;99.90;;;;;;5048037;28;20014;-52
2023/08/23 01:53:29;;;;;;;2.70;1.85;;;29.60;99.90;;;;;;5052301;28;20270;-53
2023/08/23 01:55:56;;;;;;;1.73;1.55;;;29.60;99.90;;;;;;5050215;28;20023;-56
2023/08/23 01:58:25;;;;;;;4.75;1.92;;;29.50;99.90;;;;;;5050659;28;20305;-50
2023/08/23 02:00:58;;;;;;;2.72;2.45;;;29.60;99.90;;;;;;5054494;28;20021;-58
2023/08/23 02:03:24;;;;;;;5.47;2.60;;;29.60;99.90;;;;;;5029556;28;20100;-55
2023/08/23 02:05:55;;;;;;;3.70;2.13;;;29.60;99.90;;;;;;5043795;28;20033;-57
2023/08/23 02:08:26;;;;;;;6.72;1.92;;;29.60;99.90;;;;;;5044013;28;20021;-51
2023/08/23 02:10:53;;;;;;;3.45;1.83;;;29.50;99.90;;;;;;5041354;28;20033;-53
2023/08/23 02:13:22;;;;;;;7.68;2.20;;;29.40;99.90;;;;;;5041807;28;20021;-54
2023/08/23 02:15:48;;;;;;;4.72;2.08;;;29.50;99.90;;;;;;5042541;28;20320;-59
2023/08/23 02:18:15;;;;;;;4.30;2.08;;;29.50;99.90;;;;;;5033777;28;20242;-55
2023/08/23 02:20:42;;;;;;;6.03;2.13;;;29.50;99.90;;;;;;5025344;28;20298;-54
2023/08/23 02:23:09;;;;;;;3.88;1.98;;;29.40;99.90;;;;;;5024491;28;20323;-55
2023/08/23 02:25:41;;;;;;;3.28;2.00;;;29.40;99.90;;;;;;5024921;28;20097;-54
2023/08/23 02:28:07;;;;;;;5.28;2.33;;;29.30;99.90;;;;;;5026895;28;20021;-55
2023/08/23 02:30:34;;;;;;;3.67;1.67;;;29.30;99.90;;;;;;5044612;28;20025;-52
2023/08/23 02:33:01;;;;;;;9.02;2.72;;;29.30;99.90;;;;;;5044301;28;20022;-53
2023/08/23 02:35:27;;;;;;;5.90;4.10;;;29.20;99.90;;;;;;5044587;28;20028;-55
2023/08/23 02:37:54;;;;;;;4.97;2.90;;;29.20;99.90;;;;;;5044119;28;20056;-49
2023/08/23 02:40:21;;;;;;;6.22;2.17;;;29.10;99.90;;;;;;5044156;28;20104;-55
2023/08/23 02:42:48;;;;;;;3.70;1.80;;;29.10;99.90;;;;;;5043979;28;20321;-53
2023/08/23 02:45:14;;;;;;;2.97;1.52;;;29.10;99.90;;;;;;5044452;28;20037;-50
2023/08/23 02:47:41;;;;;;;6.93;1.50;;;29.10;99.90;;;;;;5041867;28;20026;-55
2023/08/23 02:50:09;;;;;;;5.55;1.50;;;29.10;99.90;;;;;;5044647;28;20043;-57
2023/08/23 02:52:36;;;;;;;2.80;1.70;;;29.00;99.90;;;;;;5044304;28;20088;-54
2023/08/23 02:55:02;;;;;;;4.63;1.95;;;28.90;99.90;;;;;;5043088;28;20026;-53
2023/08/23 02:57:29;;;;;;;2.97;1.40;;;29.00;99.90;;;;;;5018911;28;20093;-51
2023/08/23 02:59:55;;;;;;;4.57;1.40;;;29.00;99.90;;;;;;5040786;28;20100;-56
2023/08/23 03:02:22;;;;;;;4.18;1.63;;;29.00;99.90;;;;;;5044370;28;20035;-52
2023/08/23 03:04:49;;;;;;;6.60;1.75;;;29.00;99.90;;;;;;5037362;28;20026;-52
2023/08/23 03:07:15;;;;;;;5.53;1.40;;;29.00;99.90;;;;;;5030645;28;20085;-51
2023/08/23 03:09:42;;;;;;;22.90;3.55;;;29.00;99.90;;;;;;5024233;28;20042;-55
2023/08/23 03:12:09;;;;;;;11.60;2.10;;;29.00;99.90;;;;;;5024487;28;20018;-49
2023/08/23 03:14:35;;;;;;;15.43;3.00;;;28.90;99.90;;;;;;5024446;28;20336;-55
2023/08/23 03:17:02;;;;;;;12.65;3.88;;;28.80;99.90;;;;;;5024205;28;20025;-53
2023/08/23 03:19:30;;;;;;;14.15;3.00;;;28.80;99.90;;;;;;5024008;28;20018;-54
2023/08/23 03:21:56;;;;;;;6.72;1.85;;;28.80;99.90;;;;;;5024051;28;20344;-51
2023/08/23 03:24:23;;;;;;;6.40;2.17;;;28.80;99.90;;;;;;5027804;28;20371;-52
2023/08/23 03:26:49;;;;;;;7.38;2.65;;;28.80;99.90;;;;;;5041475;28;20019;-54
2023/08/23 03:29:16;;;;;;;6.05;2.33;;;28.80;99.90;;;;;;5044160;28;20107;-53
2023/08/23 03:31:46;;;;;;;5.63;1.90;;;28.80;99.90;;;;;;5043947;28;20037;-54
2023/08/23 03:34:13;;;;;;;4.25;1.67;;;28.80;99.90;;;;;;5044335;28;20021;-53
2023/08/23 03:36:40;;;;;;;5.35;1.98;;;28.80;99.90;;;;;;5043821;28;20222;-53
2023/08/23 03:39:13;;;;;;;4.32;1.48;;;28.80;99.90;;;;;;5043740;28;20025;-53
2023/08/23 03:41:39;;;;;;;4.38;1.40;;;28.70;99.90;;;;;;5042475;28;20249;-57
2023/08/23 03:44:06;;;;;;;5.38;1.48;;;28.70;99.90;;;;;;5043408;28;20053;-56
2023/08/23 03:46:32;;;;;;;6.15;1.20;;;28.70;99.90;;;;;;5043733;28;20036;-51
2023/08/23 03:48:59;;;;;;;3.10;1.17;;;28.70;99.90;;;;;;5040213;28;20041;-53
2023/08/23 03:51:26;;;;;;;1.75;1.48;;;28.70;99.90;;;;;;5043827;28;20323;-52
2023/08/23 03:53:53;;;;;;;6.43;1.55;;;28.70;99.90;;;;;;5043651;28;20025;-53
2023/08/23 03:56:19;;;;;;;5.07;1.30;;;28.60;99.90;;;;;;5043712;28;20013;-56
2023/08/23 03:58:46;;;;;;;6.00;1.50;;;28.60;99.90;;;;;;5043509;28;20034;-55
2023/08/23 04:01:12;;;;;;;4.22;1.40;;;28.70;99.90;;;;;;5043430;28;20055;-52
2023/08/23 04:03:39;;;;;;;4.32;1.40;;;28.70;99.90;;;;;;5043631;28;20021;-52
2023/08/23 04:06:05;;;;;;;3.45;1.55;;;28.60;99.90;;;;;;5043539;28;20143;-53
2023/08/23 04:08:32;;;;;;;4.20;1.40;;;28.70;99.90;;;;;;5043333;28;20021;-50
2023/08/23 04:10:59;;;;;;;4.68;1.20;;;28.60;99.90;;;;;;5043591;28;20060;-54
2023/08/23 04:13:25;;;;;;;5.05;1.38;;;28.70;99.90;;;;;;5042831;28;20030;-55
2023/08/23 04:15:52;;;;;;;7.90;1.23;;;28.60;99.90;;;;;;5043214;28;20017;-61
2023/08/23 04:18:18;;;;;;;3.22;1.40;;;28.60;99.90;;;;;;5043670;28;20377;-56
2023/08/23 04:20:45;;;;;;;6.65;1.38;;;28.60;99.90;;;;;;5044908;28;20036;-49
2023/08/23 04:23:11;;;;;;;2.58;1.27;;;28.60;99.90;;;;;;5046934;28;20032;-57
2023/08/23 04:25:38;;;;;;;4.10;1.10;;;28.50;99.90;;;;;;5047409;28;20020;-54
2023/08/23 04:28:11;;;;;;;3.38;1.10;;;28.50;99.90;;;;;;5047401;28;20233;-54
2023/08/23 04:30:47;;;;;;;4.57;1.33;;;28.50;99.90;;;;;;5046919;28;20028;-53
2023/08/23 04:33:13;;;;;;;4.18;1.35;;;28.40;99.90;;;;;;5047123;28;20075;-52
2023/08/23 04:35:41;;;;;;;4.60;1.35;;;28.40;99.90;;;;;;5047058;28;20058;-52
2023/08/23 04:38:13;;;;;;;4.85;1.35;;;28.40;99.90;;;;;;5047630;28;20033;-57
2023/08/23 04:40:42;;;;;;;;;;;28.40;99.90;;;;;;5047782;28;20021;-55
2023/08/23 04:43:15;;;;;;;4.05;1.10;;;28.40;99.90;;;;;;5047117;28;19905;-52
2023/08/23 04:45:41;;;;;;;5.18;1.55;;;28.40;99.90;;;;;;5047698;28;20037;-51
2023/08/23 04:48:08;;;;;;;2.70;1.05;;;28.40;99.90;;;;;;5047600;28;20033;-53
2023/08/23 04:50:38;;;;;;;5.50;1.30;;;28.40;99.90;;;;;;5046938;28;20024;-55
2023/08/23 04:53:04;;;;;;;4.47;1.20;;;28.40;99.90;;;;;;5047482;28;20030;-51
2023/08/23 04:55:31;;;;;;;3.15;1.40;;;28.50;99.90;;;;;;5046714;28;20229;-50
2023/08/23 04:57:57;;;;;;;4.43;1.27;;;28.50;99.90;;;;;;5046270;28;20034;-50
2023/08/23 05:00:24;;;;;;;2.90;1.20;;;28.50;99.90;;;;;;5045744;28;20024;-51
2023/08/23 05:02:50;;;;;;;3.35;1.23;;;28.50;99.90;;;;;;5041982;28;20037;-50
2023/08/23 05:05:17;;;;;;;3.85;1.40;;;28.50;99.90;;;;;;5045979;28;20037;-50
2023/08/23 05:07:44;;;;;;;5.90;1.73;;;28.50;99.90;;;;;;5046223;28;20033;-52
2023/08/23 05:10:10;;;;;;;4.88;1.55;;;28.50;99.90;;;;;;5028501;28;20028;-52
2023/08/23 05:12:37;;;;;;;7.68;1.90;;;28.50;99.90;;;;;;5045946;28;20029;-54
2023/08/23 05:15:04;;;;;;;2.72;1.90;;;28.50;99.90;;;;;;5046059;28;20038;-48
2023/08/23 05:17:30;;;;;;;7.20;2.00;;;28.40;99.90;;;;;;5046009;28;20085;-52
2023/08/23 05:19:57;;;;;;;3.65;1.98;;;28.40;99.90;;;;;;5045749;28;20036;-54
2023/08/23 05:22:23;;;;;;;5.63;1.85;;;28.40;99.90;;;;;;5045680;28;20037;-54
2023/08/23 05:24:50;;;;;;;5.50;1.75;;;28.40;99.90;;;;;;5045832;28;20026;-58
2023/08/23 05:27:17;;;;;;;10.77;1.50;;;28.40;99.90;;;;;;5045522;28;20030;-48
2023/08/23 05:29:44;;;;;;;3.15;1.23;;;28.40;99.90;;;;;;5045692;28;20042;-49
2023/08/23 05:32:12;;;;;;;2.95;1.33;;;28.30;99.90;;;;;;5045517;28;20337;-53
2023/08/23 05:34:40;;;;;;;3.28;1.38;;;28.20;99.90;;;;;;5045438;28;20029;-48
2023/08/23 05:37:07;;;;;;;4.07;1.40;;;28.20;99.90;;;;;;5045556;28;20092;-53
2023/08/23 05:39:33;;;;;;;5.07;1.40;;;28.20;99.90;;;;;;5045538;28;20028;-54
2023/08/23 05:42:00;;;;;;;5.65;1.40;;;28.20;99.90;;;;;;5045846;28;20033;-52
2023/08/23 05:44:26;;;;;;;2.13;1.30;;;28.20;99.90;;;;;;5044957;28;20344;-49
2023/08/23 05:46:53;;;;;;;3.35;1.48;;;28.30;99.90;;;;;;5045920;28;20020;-49
2023/08/23 05:49:20;;;;;;;2.95;1.23;;;28.20;99.90;;;;;;5045185;28;20030;-52
2023/08/23 05:51:46;;;;;;;3.80;1.30;;;28.30;99.90;;;;;;5045795;28;20323;-47
2023/08/23 05:54:13;;;;;;;4.15;1.50;;;28.30;99.90;;;;;;5045419;28;20032;-52
2023/08/23 05:56:39;;;;;;;2.95;1.30;;;28.30;99.90;;;;;;5045642;28;20064;-49
2023/08/23 05:59:06;;;;;;;4.03;1.10;;;28.30;99.90;;;;;;5045099;28;20033;-51
2023/08/23 06:01:32;;;;;;;2.90;1.40;;;28.40;99.90;;;;;;5045529;28;20041;-56
2023/08/23 06:03:59;;;;;;;4.13;1.38;;;28.40;99.90;;;;;;5045086;28;20044;-49
2023/08/23 06:06:26;;;;;;;2.08;1.30;;;28.30;99.90;;;;;;5045145;28;20029;-49
2023/08/23 06:08:52;;;;;;;2.92;1.40;;;28.30;99.90;;;;;;5044954;28;20062;-51
2023/08/23 06:11:19;;;;;;;3.20;1.40;;;28.30;99.90;;;;;;5045448;28;20029;-52
2023/08/23 06:13:50;;;;;;;3.42;1.08;;;28.30;99.90;;;;;;5044804;28;20033;-50
2023/08/23 06:16:16;;;;;;;3.67;1.30;;;28.40;99.90;;;;;;5045080;28;20024;-50
2023/08/23 06:18:43;;;;;;;6.07;1.50;;;28.40;99.90;;;;;;5044887;28;20030;-48
2023/08/23 06:21:09;;;;;;;4.57;1.50;;;28.30;99.90;;;;;;5044038;28;20261;-55
2023/08/23 06:23:41;;;;;;;4.18;1.40;;;28.30;99.90;;;;;;5044742;28;20017;-51
2023/08/23 06:26:08;;;;;;;4.03;1.20;;;28.40;99.90;;;;;;5045340;28;20040;-52
2023/08/23 06:28:35;;;;;;;2.67;1.17;;;28.40;99.90;;;;;;5045729;28;20317;-56
2023/08/23 06:31:02;;;;;;;7.65;1.88;;;28.30;99.90;;;;;;5044938;28;20032;-56
2023/08/23 06:33:28;;;;;;;3.40;1.33;;;28.40;99.90;;;;;;5044526;28;20045;-57
2023/08/23 06:35:55;;;;;;;2.35;1.42;;;28.40;99.90;;;;;;5044625;28;20306;-51
2023/08/23 06:38:21;;;;;;;4.63;1.58;;;28.40;99.90;;;;;;5044484;28;20031;-56
2023/08/23 06:40:48;;;;;;;3.90;1.40;;;28.40;99.90;;;;;;5044503;28;20105;-51
2023/08/23 06:43:19;;;;;;;2.83;1.30;;;28.30;99.90;;;;;;5043748;28;20069;-55
2023/08/23 06:45:46;;;;;;;6.05;1.63;;;28.40;99.90;;;;;;5044447;28;20075;-56
2023/08/23 06:48:13;;;;;;;6.60;1.17;;;28.40;99.90;;;;;;5043913;28;20155;-51
2023/08/23 06:50:39;;;;;;;6.45;1.50;;;28.40;99.90;;;;;;5044314;28;20033;-57
2023/08/23 06:53:06;;;;;;;4.28;1.20;;;28.40;99.90;;;;;;5044192;28;20096;-51
2023/08/23 06:55:32;;;;;;;3.60;1.40;;;28.40;99.90;;;;;;5044439;28;20033;-54
2023/08/23 06:57:59;;;;;;;3.03;1.27;;;28.40;99.90;;;;;;5043932;28;20039;-54
2023/08/23 07:00:26;;;;;;;15.45;2.15;;;28.30;99.90;;;;;;5044370;28;20345;-50
2023/08/23 07:02:53;;;;;;;14.02;1.90;;;28.40;99.90;;;;;;5044048;28;20037;-50
2023/08/23 07:05:19;;;;;;;5.50;1.40;;;28.30;99.90;;;;;;5043934;28;20029;-48
2023/08/23 07:07:47;;;;;;;4.90;1.50;;;28.40;99.90;;;;;;5043961;28;20361;-48
2023/08/23 07:10:13;;;;;;;5.38;1.60;;;28.30;99.90;;;;;;5043964;28;20088;-56
2023/08/23 07:12:40;;;;;;;3.05;1.20;;;28.30;99.90;;;;;;5043805;28;20059;-53
2023/08/23 07:15:07;;;;;;;7.60;1.33;;;28.30;99.90;;;;;;5043854;28;20021;-53
2023/08/23 07:17:35;;;;;;;4.53;1.38;;;28.30;99.90;;;;;;5043812;28;20033;-51
2023/08/23 07:20:01;;;;;;;5.00;1.30;;;28.40;99.90;;;;;;5043896;28;20209;-53
2023/08/23 07:22:28;;;;;;;4.07;1.48;;;28.30;99.90;;;;;;5044102;28;20326;-53
2023/08/23 07:24:54;;;;;;;5.63;1.55;;;28.30;99.90;;;;;;5043665;28;20382;-61
2023/08/23 07:27:21;;;;;;;2.22;1.30;;;28.20;99.90;;;;;;5043683;28;20033;-48
2023/08/23 07:29:48;;;;;;;3.83;1.13;;;28.30;99.90;;;;;;5043565;28;20049;-51
2023/08/23 07:32:15;;;;;;;4.70;1.35;;;28.30;99.90;;;;;;5043933;28;20325;-56
2023/08/23 07:34:42;;;;;;;3.92;1.50;;;28.30;99.90;;;;;;5043434;28;20037;-48
2023/08/23 07:37:08;;;;;;;3.70;1.50;;;28.20;99.90;;;;;;5043651;28;20048;-50
2023/08/23 07:39:35;;;;;;;2.53;1.33;;;28.20;99.90;;;;;;5043613;28;20036;-48
2023/08/23 07:42:02;;;;;;;3.35;1.30;;;28.20;99.90;;;;;;5043991;28;20318;-48
2023/08/23 07:44:28;;;;;;;8.98;1.50;;;28.20;99.90;;;;;;5043452;28;20225;-47
2023/08/23 07:46:55;;;;;;;1.95;1.23;;;28.10;99.90;;;;;;5044113;28;20357;-54
2023/08/23 07:49:21;;;;;;;3.08;1.23;;;28.10;99.90;;;;;;5043482;28;20034;-51
2023/08/23 07:51:48;;;;;;;2.78;1.27;;;28.10;99.90;;;;;;5042840;28;20022;-52
2023/08/23 07:54:15;;;;;;;3.83;1.35;;;28.10;99.90;;;;;;5043602;28;20352;-54
2023/08/23 07:56:41;;;;;;;4.15;1.50;;;28.10;99.90;;;;;;5046995;28;20206;-50
2023/08/23 07:59:08;;;;;;;4.88;1.40;;;28.10;99.90;;;;;;5047393;28;20044;-52
2023/08/23 08:01:34;;;;;;;2.65;1.13;;;28.10;99.90;;;;;;5047903;28;20100;-58
2023/08/23 08:04:01;;;;;;;4.43;1.35;;;28.10;99.90;;;;;;5047321;28;20059;-51
2023/08/23 08:06:27;;;;;;;5.60;1.52;;;28.00;99.90;;;;;;5047562;28;20018;-51
2023/08/23 08:08:54;;;;;;;4.47;1.67;;;28.00;99.90;;;;;;5047344;28;20061;-51
2023/08/23 08:11:21;;;;;;;3.78;1.40;;;28.10;99.90;;;;;;5047507;28;20026;-49
2023/08/23 08:13:48;;;;;;;2.60;1.30;;;28.00;99.90;;;;;;5046899;28;20318;-54
2023/08/23 08:16:15;;;;;;;3.75;1.50;;;28.00;99.90;;;;;;5047364;28;20025;-53
2023/08/23 08:18:43;;;;;;;4.22;1.58;;;28.00;99.90;;;;;;5047261;28;20029;-54
2023/08/23 08:21:10;;;;;;;2.70;1.70;;;28.00;99.90;;;;;;5047089;28;20313;-50
2023/08/23 08:23:36;;;;;;;4.10;1.30;;;28.00;99.90;;;;;;5046889;28;20033;-52
2023/08/23 08:26:05;;;;;;;2.85;1.13;;;28.00;99.90;;;;;;5047146;28;20187;-51
2023/08/23 08:28:32;;;;;;;8.02;1.40;;;28.00;99.90;;;;;;5046691;28;20050;-52
2023/08/23 08:31:14;;;;;;;3.40;1.35;;;27.90;99.90;;;;;;5046889;28;20033;-56
2023/08/23 08:33:41;;;;;;;4.07;1.48;;;27.90;99.90;;;;;;5046626;28;20026;-51
2023/08/23 08:36:08;;;;;;;3.38;1.48;;;27.90;99.90;;;;;;5047024;28;20021;-50
2023/08/23 08:38:34;;;;;;;5.50;1.52;;;27.90;99.90;;;;;;5046836;28;20251;-52
2023/08/23 08:41:01;;;;;;;4.03;1.40;;;27.90;99.90;;;;;;5046885;28;20018;-51
2023/08/23 08:43:28;;;;;;;4.65;1.70;;;27.80;99.90;;;;;;5046916;28;20029;-50
2023/08/23 08:45:57;;;;;;;5.63;1.48;;;27.80;99.90;;;;;;5046600;28;20305;-54
2023/08/23 08:48:24;;;;;;;5.60;1.45;;;27.80;99.90;;;;;;5046054;28;20217;-57
2023/08/23 08:50:51;;;;;;;7.38;1.38;;;27.80;99.90;;;;;;5046744;28;20029;-52
2023/08/23 08:53:20;;;;;;;3.83;1.45;;;27.80;99.90;;;;;;5046213;28;20033;-52
2023/08/23 08:55:47;;;;;;;4.15;1.45;;;27.80;99.90;;;;;;5046536;28;20128;-58
2023/08/23 08:58:19;;;;;;;4.30;1.52;;;27.80;99.90;;;;;;5046543;28;20040;-54
2023/08/23 09:00:49;;;;;;;2.88;1.50;;;27.80;99.90;;;;;;5046471;28;20030;-51
2023/08/23 09:03:19;;;;;;;5.20;1.40;;;27.80;99.90;;;;;;5045936;28;20029;-50
2023/08/23 09:05:49;;;;;;;3.40;1.45;;;27.80;99.90;;;;;;5046055;28;20033;-52
2023/08/23 09:08:16;;;;;;;2.70;1.40;;;27.80;99.90;;;;;;5046129;28;20029;-52
2023/08/23 09:10:42;;;;;;;3.92;1.70;;;27.80;99.90;;;;;;5046366;28;20306;-51
2023/08/23 09:13:09;;;;;;;3.50;1.60;;;27.70;99.90;;;;;;5046150;28;20221;-54
2023/08/23 09:15:36;;;;;;;6.80;1.60;;;27.70;99.90;;;;;;5046267;28;20236;-50
2023/08/23 09:18:03;;;;;;;4.75;1.60;;;27.70;99.90;;;;;;5046012;28;20056;-51
2023/08/23 09:20:29;;;;;;;8.73;1.55;;;27.70;99.90;;;;;;5046103;28;20309;-54
2023/08/23 09:22:56;;;;;;;2.28;1.33;;;27.70;99.90;;;;;;5045974;28;20218;-53
2023/08/23 09:25:23;;;;;;;4.60;1.80;;;27.70;99.90;;;;;;5028016;28;20313;-55
2023/08/23 09:27:54;;;;;;;3.53;1.40;;;27.70;99.90;;;;;;5045712;28;20063;-55
2023/08/23 09:30:20;;;;;;;9.27;1.70;;;27.70;99.90;;;;;;5045879;28;20048;-49
2023/08/23 09:32:47;;;;;;;5.93;1.75;;;27.60;99.90;;;;;;5045669;28;20114;-47
2023/08/23 09:35:16;;;;;;;8.15;1.92;;;27.60;99.90;;;;;;5045748;28;20030;-50
2023/08/23 09:37:44;;;;;;;10.88;4.55;;;27.70;99.90;;;;;;5045653;28;20036;-49
2023/08/23 09:40:22;;;;;;;11.55;6.13;;;27.70;99.90;;;;;;5045652;28;20029;-54
2023/08/23 09:42:50;;;;;;;10.95;7.07;;;27.60;99.90;;;;;;5045652;28;20033;-54
2023/08/23 09:45:22;;;;;;;10.77;8.13;;;27.70;99.90;;;;;;5045398;28;20017;-48
2023/08/23 09:47:58;;;;;;;10.40;7.10;;;27.60;99.90;;;;;;5045516;28;20029;-51
2023/08/23 09:50:26;;;;;;;7.85;5.93;;;27.60;99.90;;;;;;5045407;28;20034;-52
2023/08/23 09:53:01;;;;;;;7.32;4.72;;;27.60;99.90;;;;;;5045474;28;20017;-53
2023/08/23 09:55:29;;;;;;;7.57;5.10;;;27.50;99.90;;;;;;5045388;28;20241;-47
2023/08/23 09:57:57;;;;;;;9.38;4.45;;;27.50;99.90;;;;;;5045011;28;20093;-52
2023/08/23 10:00:24;;;;;;;6.55;4.57;;;27.60;99.90;;;;;;5045429;28;20038;-56
2023/08/23 10:02:57;;;;;;;10.32;4.55;;;27.50;99.90;;;;;;5045105;28;20041;-52
2023/08/23 10:05:25;;;;;;;6.85;3.22;;;27.50;99.90;;;;;;5045030;28;20189;-54
2023/08/23 10:07:56;;;;;;;10.45;3.42;;;27.50;99.90;;;;;;5037374;28;20072;-54
2023/08/23 10:10:22;;;;;;;5.10;3.13;;;27.40;99.90;;;;;;5044912;28;20127;-53
2023/08/23 10:12:53;;;;;;;8.93;2.90;;;27.40;99.90;;;;;;5044883;28;20067;-52
2023/08/23 10:15:36;;;;;;;6.05;3.20;;;27.50;99.90;;;;;;5045012;28;20030;-54
2023/08/23 10:18:06;;;;;;;5.10;3.03;;;27.40;99.90;;;;;;5044086;28;20040;-52
2023/08/23 10:20:34;;;;;;;6.85;3.08;;;27.50;99.90;;;;;;5045033;28;20033;-52
2023/08/23 10:23:02;;;;;;;7.65;2.85;;;27.50;99.90;;;;;;5044544;28;20034;-52
2023/08/23 10:25:34;;;;;;;6.53;2.17;;;27.50;99.90;;;;;;5044636;28;20089;-58
2023/08/23 10:28:00;;;;;;;5.45;2.50;;;27.50;99.90;;;;;;5046066;28;20210;-51
2023/08/23 10:30:28;;;;;;;5.15;2.28;;;27.50;99.90;;;;;;5064510;28;20031;-52
2023/08/23 10:33:07;;;;;;;6.43;2.53;;;27.50;99.90;;;;;;5049732;28;20210;-49
2023/08/23 10:35:34;;;;;;;6.63;2.58;;;27.50;99.90;;;;;;5025053;28;20030;-59
2023/08/23 10:38:02;;;;;;;7.68;2.60;;;27.40;99.90;;;;;;5024653;28;20201;-57
2023/08/23 10:40:30;;;;;;;9.88;3.20;;;27.50;99.90;;;;;;5024929;28;20037;-58
2023/08/23 10:42:57;;;;;;;13.63;3.63;;;27.40;99.90;;;;;;5024616;28;20076;-54
2023/08/23 10:45:24;;;;;;;18.77;3.45;;;27.40;99.90;;;;;;5024603;28;20053;-50
2023/08/23 10:47:52;;;;;;;9.45;2.88;;;27.40;99.90;;;;;;5024654;28;20215;-58
2023/08/23 10:50:21;;;;;;;8.15;2.78;;;27.40;99.90;;;;;;5024724;28;20057;-52
2023/08/23 10:52:51;;;;;;;7.20;2.20;;;27.40;99.90;;;;;;5024484;28;20099;-57
2023/08/23 10:55:18;;;;;;;7.53;2.58;;;27.40;99.90;;;;;;5024556;28;20225;-50
2023/08/23 10:57:45;;;;;;;25.90;3.28;;;27.40;99.90;;;;;;5024253;28;20033;-54
2023/08/23 11:00:12;;;;;;;13.35;2.83;;;27.40;99.90;;;;;;5024418;28;20337;-54
2023/08/23 11:02:39;;;;;;;10.65;2.83;;;27.40;99.90;;;;;;5024572;28;20341;-52
2023/08/23 11:05:06;;;;;;;11.35;3.35;;;27.40;99.90;;;;;;5036769;28;20033;-55
2023/08/23 11:07:34;;;;;;;9.27;3.03;;;27.40;99.90;;;;;;5044024;28;20080;-56
2023/08/23 11:10:01;;;;;;;7.38;3.03;;;27.30;99.90;;;;;;5043951;28;20251;-51
2023/08/23 11:12:27;;;;;;;8.32;2.90;;;27.40;99.90;;;;;;5043816;28;20384;-54
2023/08/23 11:14:57;;;;;;;6.45;2.67;;;27.40;99.90;;;;;;5043942;28;20213;-54
2023/08/23 11:17:24;;;;;;;6.47;2.90;;;27.40;99.90;;;;;;5043908;28;20108;-52
2023/08/23 11:19:50;;;;;;;6.93;2.63;;;27.30;99.90;;;;;;5043848;28;20088;-56
2023/08/23 11:22:17;;;;;;;6.80;2.90;;;27.40;99.90;;;;;;5044153;28;20033;-55
2023/08/23 11:24:46;;;;;;;7.15;2.92;;;27.50;99.90;;;;;;5043171;28;20025;-48
2023/08/23 11:27:13;;;;;;;8.80;3.03;;;27.50;99.90;;;;;;5043237;28;20059;-50
2023/08/23 11:29:42;;;;;;;5.55;2.83;;;27.40;99.90;;;;;;5050069;28;20050;-52
2023/08/23 11:32:09;;;;;;;6.13;2.50;;;27.50;99.90;;;;;;5042216;28;20071;-56
2023/08/23 11:34:39;;;;;;;4.65;2.70;;;27.50;99.90;;;;;;5037716;28;20026;-54
2023/08/23 11:37:09;;;;;;;8.63;2.88;;;27.50;99.90;;;;;;5041956;28;20045;-55
2023/08/23 11:39:36;;;;;;;7.40;2.20;;;27.50;99.90;;;;;;5044761;28;20258;-49
2023/08/23 11:42:02;;;;;;;6.30;2.30;;;27.50;99.90;;;;;;5053785;28;20032;-53
2023/08/23 11:44:30;;;;;;;11.77;2.70;;;27.50;99.90;;;;;;5054586;28;20017;-53
2023/08/23 11:46:59;;;;;;;7.68;2.67;;;27.50;99.90;;;;;;5053645;28;20045;-55
2023/08/23 11:49:27;;;;;;;10.55;2.60;;;27.60;99.90;;;;;;5035014;28;20072;-53
2023/08/23 11:51:57;;;;;;;6.93;2.60;;;27.60;99.90;;;;;;5050212;28;20013;-54
2023/08/23 11:54:23;;;;;;;6.10;2.65;;;27.60;99.90;;;;;;5054275;28;20033;-47
2023/08/23 11:56:50;;;;;;;6.90;2.83;;;27.60;99.90;;;;;;5052709;28;20032;-56
2023/08/23 11:59:22;;;;;;;5.80;2.83;;;27.70;99.90;;;;;;5055669;28;20041;-60
2023/08/23 12:01:49;;;;;;;9.77;2.92;;;27.70;99.90;;;;;;5050186;28;20025;-51
2023/08/23 12:04:23;;;;;;;9.05;3.10;;;27.70;99.90;;;;;;5043406;28;20025;-57
2023/08/23 12:06:49;;;;;;;8.88;2.85;;;27.80;99.90;;;;;;5043932;28;20176;-49
2023/08/23 12:09:16;;;;;;;5.85;2.75;;;27.80;99.90;;;;;;5043795;28;20022;-53
2023/08/23 12:11:43;;;;;;;8.88;2.67;;;27.90;99.90;;;;;;5044540;28;20036;-51
2023/08/23 12:14:09;;;;;;;8.25;2.70;;;28.00;99.90;;;;;;5043522;28;20029;-51
2023/08/23 12:16:36;;;;;;;30.45;5.80;;;28.10;99.90;;;;;;5043985;28;20021;-52
2023/08/23 12:19:03;;;;;;;25.85;5.55;;;28.10;99.90;;;;;;5043623;28;20049;-46
2023/08/23 12:21:35;;;;;;;20.05;4.50;;;28.20;99.90;;;;;;5043735;28;20036;-52
2023/08/23 12:24:01;;;;;;;;;;;28.20;99.90;;;;;;5043520;28;20048;-54
2023/08/23 12:26:28;;;;;;;15.07;3.28;;;28.30;99.90;;;;;;5043740;28;19908;-51
2023/08/23 12:28:54;;;;;;;16.13;3.90;;;28.30;99.90;;;;;;5043270;28;20041;-47
2023/08/23 12:31:22;;;;;;;10.85;3.42;;;28.40;99.90;;;;;;5043797;28;20348;-56
2023/08/23 12:33:48;;;;;;;7.75;2.90;;;28.50;99.90;;;;;;5025373;28;20309;-50
2023/08/23 12:36:15;;;;;;;14.48;2.80;;;28.50;99.90;;;;;;5042238;28;20314;-49
2023/08/23 12:38:42;;;;;;;9.48;2.90;;;28.50;99.90;;;;;;5042040;28;20030;-53
2023/08/23 12:41:09;;;;;;;10.07;2.55;;;28.60;99.90;;;;;;5044012;28;20013;-55
2023/08/23 12:43:43;;;;;;;6.30;2.22;;;28.60;99.90;;;;;;5046785;28;20108;-48
2023/08/23 12:46:10;;;;;;;4.95;2.17;;;28.70;99.90;;;;;;5046711;28;20025;-53
2023/08/23 12:48:37;;;;;;;6.85;2.30;;;28.70;99.90;;;;;;5046631;28;20032;-49
2023/08/23 12:51:03;;;;;;;7.15;2.28;;;28.70;99.90;;;;;;5046813;28;20048;-46